Time;durP1;ratioP1;P1;durP2;ratioP2;P2;SDS_P1;SDS_P2;PMS_P1;PMS_P2;Temp;Humidity;BMP_temperature;BMP_pressure;BME280_temperature;BME280_humidity;BME280_pressure;Samples;Min_cycle;Max_cycle;Signal;HPM_P1;HPM_P2
2023/07/03 00:02:06;;;;;;;10.90;4.53;;;15.20;99.90;;;;;;5007769;28;20044;-78
2023/07/03 00:04:35;;;;;;;17.27;4.88;;;15.20;99.90;;;;;;5022038;28;20341;-78
2023/07/03 00:07:05;;;;;;;14.80;4.65;;;15.10;99.90;;;;;;5018237;28;20033;-78
2023/07/03 00:09:32;;;;;;;14.98;4.50;;;15.10;99.90;;;;;;5019652;28;20029;-79
2023/07/03 00:11:57;;;;;;;15.02;4.60;;;15.10;99.90;;;;;;5006206;28;20303;-79
2023/07/03 00:14:23;;;;;;;15.05;4.50;;;15.20;99.90;;;;;;5031085;28;20543;-78
2023/07/03 00:16:49;;;;;;;11.18;4.18;;;15.20;99.90;;;;;;5023442;28;20045;-79
2023/07/03 00:19:15;;;;;;;15.88;4.50;;;15.10;99.90;;;;;;5006184;28;20041;-78
2023/07/03 00:21:44;;;;;;;11.10;4.72;;;15.10;99.90;;;;;;5031789;28;20527;-79
2023/07/03 00:24:11;;;;;;;12.77;4.75;;;15.10;99.90;;;;;;5048452;28;20032;-79
2023/07/03 00:26:37;;;;;;;11.57;4.60;;;15.10;99.90;;;;;;5019142;28;20076;-78
2023/07/03 00:29:03;;;;;;;15.88;5.15;;;15.10;99.90;;;;;;5032211;28;20512;-78
2023/07/03 00:31:28;;;;;;;14.90;4.95;;;15.10;99.90;;;;;;5017704;28;20154;-79
2023/07/03 00:33:54;;;;;;;11.35;4.88;;;15.10;99.90;;;;;;5045756;28;20059;-78
2023/07/03 00:36:19;;;;;;;14.70;4.78;;;15.00;99.90;;;;;;5030909;28;20455;-79
2023/07/03 00:38:45;;;;;;;16.63;4.88;;;15.00;99.90;;;;;;5020660;28;20471;-78
2023/07/03 00:41:14;;;;;;;12.63;4.60;;;15.10;99.90;;;;;;5029256;28;20053;-78
2023/07/03 00:43:40;;;;;;;14.55;4.57;;;15.10;99.90;;;;;;5049123;28;20389;-78
2023/07/03 00:46:11;;;;;;;14.45;4.95;;;15.10;99.90;;;;;;5003495;28;20106;-79
2023/07/03 00:48:39;;;;;;;10.82;4.20;;;15.10;99.90;;;;;;5019739;28;20103;-78
2023/07/03 00:51:05;;;;;;;13.02;4.30;;;15.00;99.90;;;;;;5019245;28;20484;-79
2023/07/03 00:53:30;;;;;;;16.63;4.50;;;15.00;99.90;;;;;;5021835;28;20048;-78
2023/07/03 00:55:56;;;;;;;15.45;4.88;;;14.90;99.90;;;;;;5018238;28;20280;-79
2023/07/03 00:58:22;;;;;;;11.18;4.60;;;14.90;99.90;;;;;;5022481;28;20514;-78
2023/07/03 01:00:58;;;;;;;14.75;4.30;;;14.90;99.90;;;;;;5018791;28;20055;-78
2023/07/03 01:03:42;;;;;;;16.75;4.70;;;14.90;99.90;;;;;;5001563;28;20032;-78
2023/07/03 01:06:19;;;;;;;12.77;4.50;;;15.00;99.90;;;;;;5001131;28;20076;-78
2023/07/03 01:08:52;;;;;;;10.57;4.50;;;15.00;99.90;;;;;;5023998;28;20075;-79
2023/07/03 01:11:20;;;;;;;13.20;3.83;;;15.00;99.90;;;;;;5020248;28;20037;-78
2023/07/03 01:13:48;;;;;;;11.02;3.95;;;15.00;99.90;;;;;;5020590;28;20042;-79
2023/07/03 01:16:14;;;;;;;15.48;4.20;;;15.10;99.90;;;;;;5042573;28;20076;-79
2023/07/03 01:18:41;;;;;;;8.82;4.32;;;15.00;99.90;;;;;;5017038;28;20117;-78
2023/07/03 01:21:19;;;;;;;14.30;4.13;;;15.10;99.90;;;;;;5020046;28;20043;-78
2023/07/03 01:23:54;;;;;;;10.68;3.65;;;15.00;99.90;;;;;;5047787;28;20042;-79
2023/07/03 01:26:21;;;;;;;10.88;3.60;;;15.00;99.90;;;;;;5003204;28;20049;-79
2023/07/03 01:28:54;;;;;;;13.93;4.40;;;15.10;99.90;;;;;;5037526;28;20056;-79
2023/07/03 01:31:23;;;;;;;13.35;3.80;;;15.10;99.90;;;;;;5021044;28;20227;-79
2023/07/03 01:33:49;;;;;;;12.07;3.80;;;15.10;99.90;;;;;;5018023;28;20188;-79
2023/07/03 01:36:16;;;;;;;11.70;3.85;;;15.20;99.90;;;;;;5030105;28;20106;-79
2023/07/03 01:38:43;;;;;;;10.57;3.95;;;15.10;99.90;;;;;;5047119;28;20076;-79
2023/07/03 01:41:11;;;;;;;9.73;3.90;;;15.20;99.90;;;;;;5022482;28;20176;-78
2023/07/03 01:43:39;;;;;;;11.25;3.70;;;15.20;99.90;;;;;;5048874;28;20485;-78
2023/07/03 01:46:06;;;;;;;13.13;4.07;;;15.20;99.90;;;;;;5022216;28;20043;-78
2023/07/03 01:48:32;;;;;;;15.00;3.58;;;15.30;99.90;;;;;;5007683;28;20041;-79
2023/07/03 01:50:58;;;;;;;10.20;4.00;;;15.30;99.90;;;;;;5024915;28;20044;-78
2023/07/03 01:53:28;;;;;;;11.35;4.57;;;15.30;99.90;;;;;;5010742;28;20037;-78
2023/07/03 01:56:03;;;;;;;11.60;3.47;;;15.40;99.90;;;;;;5023318;28;20541;-79
2023/07/03 01:58:46;;;;;;;13.52;3.65;;;15.50;99.90;;;;;;5050242;28;20113;-79
2023/07/03 02:01:50;;;;;;;9.70;3.83;;;15.40;99.90;;;;;;5021844;28;20037;-79
2023/07/03 02:04:35;;;;;;;15.20;3.92;;;15.30;99.90;;;;;;4953121;28;20042;-79
2023/07/03 02:07:03;;;;;;;9.07;3.42;;;15.30;99.90;;;;;;5017201;28;20064;-79
2023/07/03 02:09:30;;;;;;;12.73;3.55;;;15.30;99.90;;;;;;5007903;28;20433;-78
2023/07/03 02:11:56;;;;;;;13.57;3.63;;;15.20;99.90;;;;;;5027538;28;20288;-79
2023/07/03 02:14:24;;;;;;;15.57;3.85;;;15.20;99.90;;;;;;5032217;28;20156;-79
2023/07/03 02:16:51;;;;;;;13.20;3.70;;;15.30;99.90;;;;;;5037080;28;20053;-79
2023/07/03 02:19:17;;;;;;;9.48;3.40;;;15.20;99.90;;;;;;5050448;28;20041;-79
2023/07/03 02:21:45;;;;;;;16.00;3.40;;;15.20;99.90;;;;;;5007914;28;20119;-79
2023/07/03 02:24:12;;;;;;;9.25;3.35;;;15.30;99.90;;;;;;5003574;28;20440;-79
2023/07/03 02:26:38;;;;;;;14.15;3.80;;;15.40;99.90;;;;;;5033489;28;20109;-79
2023/07/03 02:29:04;;;;;;;8.55;3.17;;;15.40;99.90;;;;;;5022588;28;20052;-78
2023/07/03 02:31:30;;;;;;;9.20;2.88;;;15.50;99.90;;;;;;5010920;28;20347;-79
2023/07/03 02:33:56;;;;;;;11.07;2.95;;;15.50;99.90;;;;;;5051537;28;20488;-79
2023/07/03 02:36:24;;;;;;;9.75;3.53;;;15.30;99.90;;;;;;5003967;28;20048;-78
2023/07/03 02:38:52;;;;;;;9.30;3.13;;;15.30;99.90;;;;;;5050540;28;20049;-79
2023/07/03 02:41:21;;;;;;;7.35;2.85;;;15.30;99.90;;;;;;5050423;28;20057;-79
2023/07/03 02:43:47;;;;;;;8.20;2.70;;;15.30;99.90;;;;;;5022504;28;20386;-79
2023/07/03 02:46:12;;;;;;;7.18;2.50;;;15.30;99.90;;;;;;5049511;28;20033;-78
2023/07/03 02:48:39;;;;;;;8.13;2.70;;;15.30;99.90;;;;;;5020235;28;20045;-79
2023/07/03 02:51:05;;;;;;;6.38;2.60;;;15.30;99.90;;;;;;5004343;28;20458;-78
2023/07/03 02:53:31;;;;;;;9.30;3.00;;;15.20;99.90;;;;;;5049755;28;20045;-79
2023/07/03 02:55:56;;;;;;;8.30;2.75;;;15.20;99.90;;;;;;5004875;28;20037;-79
2023/07/03 02:58:23;;;;;;;11.73;2.70;;;15.10;99.90;;;;;;5032427;28;20061;-79
2023/07/03 03:00:50;;;;;;;8.80;2.35;;;15.10;99.90;;;;;;5025172;28;20040;-79
2023/07/03 03:03:16;;;;;;;9.48;2.42;;;15.10;99.90;;;;;;5038648;28;20552;-79
2023/07/03 03:05:41;;;;;;;7.03;2.47;;;15.00;99.90;;;;;;5021976;28;20025;-78
2023/07/03 03:08:11;;;;;;;8.13;2.47;;;14.90;99.90;;;;;;5035531;28;20041;-79
2023/07/03 03:10:40;;;;;;;9.60;2.42;;;14.90;99.90;;;;;;5025320;28;20072;-79
2023/07/03 03:13:05;;;;;;;10.23;3.15;;;14.90;99.90;;;;;;5003835;28;20231;-79
2023/07/03 03:15:34;;;;;;;10.77;2.30;;;14.70;99.90;;;;;;5049631;28;20184;-79
2023/07/03 03:18:00;;;;;;;5.78;2.53;;;14.70;99.90;;;;;;5019564;28;20091;-79
2023/07/03 03:20:26;;;;;;;8.05;2.75;;;14.60;99.90;;;;;;5049626;28;20045;-79
2023/07/03 03:22:54;;;;;;;9.95;2.47;;;14.50;99.90;;;;;;5020319;28;20044;-78
2023/07/03 03:25:20;;;;;;;7.07;2.20;;;14.50;99.90;;;;;;5030803;28;20390;-79
2023/07/03 03:27:46;;;;;;;12.68;2.45;;;14.40;99.90;;;;;;5022493;28;20079;-79
2023/07/03 03:30:12;;;;;;;8.35;2.50;;;14.30;99.90;;;;;;5008869;28;20037;-78
2023/07/03 03:32:37;;;;;;;6.53;2.15;;;14.40;99.90;;;;;;5025772;28;20041;-79
2023/07/03 03:35:03;;;;;;;10.00;2.17;;;14.40;99.90;;;;;;5049482;28;20064;-79
2023/07/03 03:37:29;;;;;;;9.30;2.40;;;14.30;99.90;;;;;;5007469;28;20163;-79
2023/07/03 03:39:55;;;;;;;7.28;2.00;;;14.30;99.90;;;;;;5019385;28;20045;-79
2023/07/03 03:42:21;;;;;;;7.05;2.20;;;14.20;99.90;;;;;;5050238;28;20222;-79
2023/07/03 03:44:46;;;;;;;5.57;2.00;;;14.20;99.90;;;;;;5004649;28;20156;-79
2023/07/03 03:47:12;;;;;;;9.88;2.17;;;14.20;99.90;;;;;;5022203;28;20132;-78
2023/07/03 03:49:39;;;;;;;8.25;1.88;;;14.10;99.90;;;;;;5021135;28;20447;-79
2023/07/03 03:52:05;;;;;;;8.82;2.35;;;14.00;99.90;;;;;;5048275;28;20508;-78
2023/07/03 03:54:31;;;;;;;7.15;2.58;;;14.00;99.90;;;;;;5039841;28;20047;-78
2023/07/03 03:56:57;;;;;;;11.10;2.30;;;14.00;99.90;;;;;;5018920;28;20496;-79
2023/07/03 03:59:23;;;;;;;11.43;2.38;;;14.10;99.90;;;;;;5021119;28;20045;-78
2023/07/03 04:01:49;;;;;;;13.30;2.75;;;14.00;99.90;;;;;;5020138;28;20052;-79
2023/07/03 04:04:15;;;;;;;7.10;1.98;;;14.00;99.90;;;;;;4999876;28;20065;-78
2023/07/03 04:06:41;;;;;;;9.27;2.20;;;14.00;99.90;;;;;;5008364;28;20037;-79
2023/07/03 04:09:07;;;;;;;9.35;2.35;;;14.00;99.90;;;;;;5018398;28;20041;-78
2023/07/03 04:11:33;;;;;;;7.03;2.70;;;14.10;99.90;;;;;;5019958;28;20034;-78
2023/07/03 04:14:00;;;;;;;7.57;2.47;;;14.10;99.90;;;;;;5017551;28;20040;-79
2023/07/03 04:16:28;;;;;;;10.32;2.33;;;14.10;99.90;;;;;;5048647;28;20033;-79
2023/07/03 04:18:53;;;;;;;9.38;2.22;;;14.20;99.90;;;;;;4998599;28;20567;-78
2023/07/03 04:21:19;;;;;;;9.73;2.28;;;14.20;99.90;;;;;;5020959;28;20305;-79
2023/07/03 04:23:45;;;;;;;7.55;2.00;;;14.20;99.90;;;;;;5025342;28;20054;-78
2023/07/03 04:26:10;;;;;;;8.57;2.40;;;14.20;99.90;;;;;;5049814;28;20089;-79
2023/07/03 04:28:36;;;;;;;5.55;1.73;;;14.30;99.90;;;;;;5007382;28;20104;-79
2023/07/03 04:31:02;;;;;;;7.57;2.20;;;14.40;99.90;;;;;;5032152;28;20021;-78
2023/07/03 04:33:31;;;;;;;7.25;2.20;;;14.50;99.90;;;;;;5018932;28;20037;-78
2023/07/03 04:35:56;;;;;;;8.48;2.40;;;14.50;99.90;;;;;;5048552;28;20087;-78
2023/07/03 04:38:23;;;;;;;7.55;2.35;;;14.60;99.90;;;;;;5024624;28;20065;-79
2023/07/03 04:40:51;;;;;;;8.30;2.30;;;14.60;99.90;;;;;;5022147;28;20180;-78
2023/07/03 04:43:20;;;;;;;8.73;2.70;;;14.70;99.90;;;;;;5030748;28;20037;-79
2023/07/03 04:45:51;;;;;;;6.80;2.10;;;14.70;99.90;;;;;;5030155;28;20088;-79
2023/07/03 04:48:18;;;;;;;9.63;2.40;;;14.80;99.90;;;;;;5017534;28;20033;-78
2023/07/03 04:50:49;;;;;;;7.60;2.35;;;14.90;99.90;;;;;;5005012;28;20445;-78
2023/07/03 04:53:16;;;;;;;8.18;2.40;;;15.00;99.90;;;;;;5019150;28;20049;-78
2023/07/03 04:55:42;;;;;;;10.00;2.03;;;15.00;99.90;;;;;;5020695;28;20835;-78
2023/07/03 04:58:09;;;;;;;7.88;2.40;;;15.00;99.90;;;;;;5020646;28;20148;-79
2023/07/03 05:00:35;;;;;;;12.20;2.33;;;15.10;99.90;;;;;;5004753;28;20510;-78
2023/07/03 05:03:03;;;;;;;7.03;2.53;;;15.20;99.90;;;;;;5016834;28;20029;-78
2023/07/03 05:05:29;;;;;;;10.55;2.03;;;15.30;99.90;;;;;;5031225;28;20067;-79
2023/07/03 05:07:55;;;;;;;9.93;2.28;;;15.30;99.90;;;;;;5032224;28;20041;-78
2023/07/03 05:10:22;;;;;;;10.45;2.60;;;15.40;99.90;;;;;;5024531;28;21044;-79
2023/07/03 05:12:48;;;;;;;7.45;2.13;;;15.40;99.90;;;;;;5021978;28;20057;-78
2023/07/03 05:15:17;;;;;;;12.07;2.22;;;15.50;99.90;;;;;;5025519;28;20098;-78
2023/07/03 05:17:43;;;;;;;8.30;1.80;;;15.50;99.90;;;;;;5004391;28;20041;-78
2023/07/03 05:20:12;;;;;;;8.35;2.10;;;15.60;99.90;;;;;;5037370;28;20071;-79
2023/07/03 05:22:42;;;;;;;7.72;2.38;;;15.70;99.90;;;;;;5008056;28;20048;-79
2023/07/03 05:25:10;;;;;;;8.70;2.22;;;15.80;99.90;;;;;;5036734;28;20370;-78
2023/07/03 05:27:37;;;;;;;11.10;2.42;;;16.00;99.90;;;;;;5034157;28;20048;-78
2023/07/03 05:30:07;;;;;;;6.60;2.03;;;16.10;99.90;;;;;;5022340;28;20177;-79
2023/07/03 05:32:33;;;;;;;8.05;1.95;;;16.10;99.90;;;;;;5021214;28;20369;-79
2023/07/03 05:34:59;;;;;;;10.80;2.17;;;16.20;99.90;;;;;;5021518;28;20054;-79
2023/07/03 05:37:25;;;;;;;8.98;2.53;;;16.40;99.90;;;;;;5053566;28;20068;-78
2023/07/03 05:39:51;;;;;;;8.40;2.17;;;16.50;99.90;;;;;;5006223;28;20041;-79
2023/07/03 05:42:17;;;;;;;11.20;2.65;;;16.60;99.90;;;;;;5051754;28;20405;-79
2023/07/03 05:44:43;;;;;;;9.95;2.72;;;16.80;99.90;;;;;;5008725;28;20044;-79
2023/07/03 05:47:10;;;;;;;5.07;1.80;;;16.70;99.90;;;;;;4999787;28;20044;-79
2023/07/03 05:49:36;;;;;;;9.10;2.42;;;16.50;99.90;;;;;;5050194;28;20053;-79
2023/07/03 05:52:01;;;;;;;6.80;2.00;;;16.50;99.90;;;;;;5010777;28;20515;-79
2023/07/03 05:54:27;;;;;;;8.57;2.13;;;16.50;99.90;;;;;;5025951;28;20554;-79
2023/07/03 05:57:02;;;;;;;7.15;2.40;;;16.30;99.90;;;;;;5024561;28;20041;-79
2023/07/03 05:59:28;;;;;;;6.22;1.88;;;16.40;99.90;;;;;;5020067;28;20029;-79
2023/07/03 06:01:55;;;;;;;9.75;2.22;;;16.50;99.90;;;;;;5024099;28;20084;-79
2023/07/03 06:04:24;;;;;;;9.40;2.30;;;16.60;99.90;;;;;;5029168;28;20546;-79
2023/07/03 06:06:57;;;;;;;12.27;2.42;;;16.70;99.90;;;;;;5024003;28;20128;-79
2023/07/03 06:09:24;;;;;;;7.72;2.25;;;16.80;99.90;;;;;;5050617;28;20037;-79
2023/07/03 06:11:49;;;;;;;6.03;2.05;;;17.00;99.90;;;;;;5033194;28;20562;-79
2023/07/03 06:14:17;;;;;;;11.63;2.25;;;17.20;99.90;;;;;;5021187;28;20131;-79
2023/07/03 06:16:44;;;;;;;8.63;2.38;;;17.40;99.90;;;;;;5022952;28;20041;-79
2023/07/03 06:19:10;;;;;;;6.28;1.88;;;17.40;99.90;;;;;;5004792;28;20033;-79
2023/07/03 06:21:37;;;;;;;9.68;2.25;;;17.50;99.90;;;;;;5009870;28;20039;-79
2023/07/03 06:24:04;;;;;;;10.00;2.30;;;17.70;99.90;;;;;;5007027;28;20028;-79
2023/07/03 06:26:30;;;;;;;8.10;2.25;;;17.70;99.90;;;;;;5025050;28;20110;-79
2023/07/03 06:28:56;;;;;;;9.63;2.00;;;17.50;99.90;;;;;;5022393;28;20637;-79
2023/07/03 06:31:21;;;;;;;5.47;1.70;;;17.20;99.90;;;;;;5034976;28;20037;-79
2023/07/03 06:33:47;;;;;;;5.38;1.60;;;17.10;99.90;;;;;;5016206;28;20067;-79
2023/07/03 06:36:20;;;;;;;4.95;1.77;;;16.90;99.90;;;;;;5035245;28;20084;-79
2023/07/03 06:38:58;;;;;;;3.55;1.90;;;16.90;99.90;;;;;;5012372;28;20124;-79
2023/07/03 06:41:27;;;;;;;5.72;1.67;;;16.70;99.90;;;;;;5034324;28;20069;-79
2023/07/03 06:43:53;;;;;;;13.25;2.45;;;16.70;99.90;;;;;;5033007;28;20132;-82
2023/07/03 06:46:19;;;;;;;9.82;2.28;;;16.60;99.90;;;;;;5021686;28;20637;-81
2023/07/03 06:48:45;;;;;;;5.55;2.00;;;16.00;99.90;;;;;;5017083;28;20086;-80
2023/07/03 06:51:12;;;;;;;9.77;2.33;;;15.60;99.90;;;;;;5021748;28;20033;-80
2023/07/03 06:53:39;;;;;;;8.07;1.92;;;15.60;99.90;;;;;;5022377;28;20033;-79
2023/07/03 06:56:06;;;;;;;8.90;2.47;;;15.60;99.90;;;;;;5030208;28;20164;-79
2023/07/03 06:58:33;;;;;;;9.32;2.50;;;15.50;99.90;;;;;;5004622;28;20048;-79
2023/07/03 07:01:09;;;;;;;12.07;2.63;;;15.60;99.90;;;;;;5023204;28;20531;-79
2023/07/03 07:03:35;;;;;;;9.13;2.67;;;15.70;99.90;;;;;;5020740;28;20037;-79
2023/07/03 07:06:11;;;;;;;6.63;2.28;;;15.70;99.90;;;;;;5034146;28;20049;-78
2023/07/03 07:08:37;;;;;;;9.23;2.55;;;15.90;99.90;;;;;;5023425;28;20424;-79
2023/07/03 07:11:09;;;;;;;8.30;2.40;;;16.20;99.90;;;;;;5034354;28;20033;-78
2023/07/03 07:13:39;;;;;;;9.57;2.40;;;16.40;99.90;;;;;;5034288;28;20423;-79
2023/07/03 07:16:04;;;;;;;11.27;2.30;;;16.90;99.90;;;;;;5024021;28;20126;-78
2023/07/03 07:18:30;;;;;;;7.65;2.47;;;16.90;99.90;;;;;;5022706;28;20066;-79
2023/07/03 07:20:56;;;;;;;6.70;2.00;;;17.20;99.90;;;;;;5002024;28;20484;-79
2023/07/03 07:23:21;;;;;;;8.63;2.22;;;17.50;99.90;;;;;;5035679;28;20086;-79
2023/07/03 07:25:55;;;;;;;6.05;2.20;;;17.70;99.90;;;;;;5019578;28;20419;-79
2023/07/03 07:28:23;;;;;;;6.15;2.10;;;18.00;99.90;;;;;;5005912;28;20546;-79
2023/07/03 07:30:49;;;;;;;7.38;2.63;;;17.50;99.90;;;;;;5032980;28;20588;-79
2023/07/03 07:33:15;;;;;;;6.88;1.92;;;17.20;99.90;;;;;;5002962;28;20168;-78
2023/07/03 07:35:43;;;;;;;8.25;2.00;;;17.00;99.90;;;;;;5033512;28;20130;-79
2023/07/03 07:38:13;;;;;;;10.18;1.98;;;16.80;99.90;;;;;;5009687;28;20037;-79
2023/07/03 07:40:39;;;;;;;9.77;1.90;;;16.40;99.90;;;;;;5020247;28;20053;-79
2023/07/03 07:43:05;;;;;;;6.15;1.98;;;16.50;99.90;;;;;;5019239;28;20038;-79
2023/07/03 07:45:31;;;;;;;8.43;2.10;;;16.40;99.90;;;;;;5019004;28;20040;-79
2023/07/03 07:47:57;;;;;;;11.70;2.03;;;16.30;99.90;;;;;;5029144;28;20042;-78
2023/07/03 07:50:23;;;;;;;8.07;2.08;;;16.40;99.90;;;;;;5017703;28;20046;-78
2023/07/03 07:52:50;;;;;;;7.20;2.15;;;16.40;99.90;;;;;;5023190;28;20103;-78
2023/07/03 07:55:16;;;;;;;6.85;1.70;;;16.60;99.90;;;;;;5018768;28;20460;-78
2023/07/03 07:57:42;;;;;;;8.82;1.80;;;16.80;99.90;;;;;;5018975;28;20037;-79
2023/07/03 08:00:08;;;;;;;6.82;2.05;;;16.90;99.90;;;;;;5020282;28;20114;-79
2023/07/03 08:02:34;;;;;;;6.45;1.88;;;16.70;99.90;;;;;;5003230;28;20032;-78
2023/07/03 08:05:00;;;;;;;6.30;1.83;;;16.80;99.90;;;;;;5006796;28;20103;-78
2023/07/03 08:07:26;;;;;;;5.07;2.08;;;17.00;99.90;;;;;;5015427;28;20511;-78
2023/07/03 08:09:51;;;;;;;7.60;1.30;;;17.10;99.90;;;;;;5031096;28;20116;-79
2023/07/03 08:12:17;;;;;;;6.53;1.80;;;16.90;99.90;;;;;;5021498;28;20063;-79
2023/07/03 08:14:43;;;;;;;6.28;1.42;;;16.90;99.90;;;;;;5004026;28;20072;-79
2023/07/03 08:17:08;;;;;;;5.88;1.70;;;16.90;99.90;;;;;;5004901;28;20439;-79
2023/07/03 08:19:34;;;;;;;5.18;1.40;;;17.10;99.90;;;;;;5019006;28;20033;-79
2023/07/03 08:22:00;;;;;;;6.72;1.67;;;17.50;99.90;;;;;;5046606;28;20466;-79
2023/07/03 08:24:25;;;;;;;5.32;1.70;;;17.60;99.90;;;;;;5035686;28;20033;-78
2023/07/03 08:26:53;;;;;;;4.18;1.70;;;18.50;99.90;;;;;;5023972;28;20543;-79
2023/07/03 08:29:18;;;;;;;5.93;1.13;;;18.20;99.90;;;;;;5032205;28;20536;-79
2023/07/03 08:31:44;;;;;;;5.65;1.67;;;18.30;99.90;;;;;;5022641;28;20021;-78
2023/07/03 08:34:10;;;;;;;6.00;1.88;;;17.80;99.90;;;;;;5019157;28;20045;-79
2023/07/03 08:36:36;;;;;;;7.50;1.60;;;17.80;99.90;;;;;;5005069;28;20047;-78
2023/07/03 08:39:04;;;;;;;6.68;2.10;;;18.50;99.90;;;;;;5019038;28;20041;-79
2023/07/03 08:41:35;;;;;;;7.18;1.50;;;18.30;99.90;;;;;;5019079;28;20056;-79
2023/07/03 08:44:01;;;;;;;7.30;1.80;;;18.50;99.90;;;;;;5049726;28;20037;-79
2023/07/03 08:46:31;;;;;;;6.10;1.65;;;19.00;99.90;;;;;;5020560;28;20504;-79
2023/07/03 08:49:03;;;;;;;9.15;1.80;;;18.90;99.90;;;;;;5021357;28;20075;-79
2023/07/03 08:51:32;;;;;;;7.13;1.50;;;19.10;99.90;;;;;;5021524;28;20043;-79
2023/07/03 08:54:10;;;;;;;5.35;1.55;;;18.90;99.90;;;;;;5026412;28;20041;-79
2023/07/03 08:56:36;;;;;;;6.13;1.65;;;19.20;99.90;;;;;;5047648;28;20453;-79
2023/07/03 08:59:04;;;;;;;10.20;2.08;;;19.70;99.90;;;;;;5018508;28;20037;-80
2023/07/03 09:02:05;;;;;;;4.20;1.50;;;19.50;99.90;;;;;;5002772;28;20038;-79
2023/07/03 09:04:39;;;;;;;4.95;1.75;;;19.60;99.90;;;;;;4980052;28;20547;-79
2023/07/03 09:07:16;;;;;;;8.95;2.15;;;19.20;99.90;;;;;;5022015;28;20056;-79
2023/07/03 09:09:54;;;;;;;9.07;1.65;;;18.90;99.90;;;;;;5024130;28;20149;-79
2023/07/03 09:12:22;;;;;;;4.75;1.40;;;18.20;99.90;;;;;;5020163;28;20029;-79
2023/07/03 09:14:55;;;;;;;3.88;1.55;;;18.00;12.80;;;;;;5029519;28;20707;-79
2023/07/03 09:17:23;;;;;;;6.90;2.15;;;17.90;99.90;;;;;;5019852;28;20068;-79
2023/07/03 09:19:52;;;;;;;4.13;1.08;;;18.00;99.90;;;;;;5018713;28;20042;-79
2023/07/03 09:22:42;;;;;;;5.25;1.80;;;18.20;99.90;;;;;;5017955;28;20037;-79
2023/07/03 09:25:16;;;;;;;4.53;1.48;;;18.10;99.90;;;;;;5017553;28;20079;-79
2023/07/03 09:27:44;;;;;;;5.28;1.30;;;18.10;99.90;;;;;;5000736;28;20033;-79
2023/07/03 09:30:12;;;;;;;4.53;1.52;;;18.40;99.90;;;;;;5020612;28;20060;-79
2023/07/03 09:32:37;;;;;;;7.00;1.77;;;18.40;99.90;;;;;;5018091;28;20044;-79
2023/07/03 09:35:22;;;;;;;4.25;1.45;;;18.20;99.90;;;;;;5031484;28;20041;-79
2023/07/03 09:37:51;;;;;;;5.55;1.30;;;18.40;1.00;;;;;;5016533;28;20055;-79
2023/07/03 09:40:27;;;;;;;4.20;1.30;;;18.40;99.90;;;;;;4999810;28;20221;-79
2023/07/03 09:42:53;;;;;;;2.80;0.90;;;18.30;99.90;;;;;;5002930;28;20057;-79
2023/07/03 09:45:28;;;;;;;4.18;1.08;;;18.00;1.00;;;;;;5002274;28;20157;-79
2023/07/03 09:47:58;;;;;;;;;;;17.90;99.90;;;;;;5001423;28;20429;-80
2023/07/03 09:50:35;;;;;;;4.47;1.60;;;17.70;60.20;;;;;;5018782;28;20008;-79
2023/07/03 09:53:03;;;;;;;3.88;1.30;;;17.60;42.30;;;;;;5020366;28;20045;-83
2023/07/03 09:55:30;;;;;;;5.65;1.20;;;17.30;99.90;;;;;;5021116;28;20384;-80
2023/07/03 09:57:56;;;;;;;2.83;1.17;;;17.10;99.90;;;;;;5019092;28;20057;-80
2023/07/03 10:00:24;;;;;;;2.70;1.30;;;17.10;99.90;;;;;;5018159;28;20485;-80
2023/07/03 10:02:57;;;;;;;4.82;1.48;;;17.20;99.90;;;;;;5018578;28;20052;-79
2023/07/03 10:05:32;;;;;;;3.13;1.23;;;17.40;99.90;;;;;;5020820;28;20079;-79
2023/07/03 10:08:04;;;;;;;4.85;1.20;;;17.40;99.90;;;;;;5012742;28;20046;-80
2023/07/03 10:10:33;;;;;;;2.90;1.27;;;17.50;99.90;;;;;;5010462;28;20045;-79
2023/07/03 10:12:58;;;;;;;2.45;1.05;;;17.30;99.90;;;;;;5004856;28;20179;-79
2023/07/03 10:15:33;;;;;;;3.38;1.30;;;16.90;99.90;;;;;;5032225;28;20499;-79
2023/07/03 10:18:03;;;;;;;3.20;1.15;;;16.80;99.90;;;;;;5016679;28;20057;-79
2023/07/03 10:20:35;;;;;;;1.88;1.10;;;16.30;99.90;;;;;;5037581;28;20045;-79
2023/07/03 10:23:07;;;;;;;2.13;1.30;;;16.40;99.90;;;;;;5031866;28;20041;-79
2023/07/03 10:25:38;;;;;;;2.78;1.23;;;16.10;99.90;;;;;;5022354;28;20037;-79
2023/07/03 10:28:12;;;;;;;3.15;1.27;;;16.40;99.90;;;;;;5022012;28;20194;-80
2023/07/03 10:30:43;;;;;;;3.55;1.27;;;16.30;99.90;;;;;;5026641;28;20040;-79
2023/07/03 10:33:14;;;;;;;3.80;1.08;;;16.50;99.90;;;;;;5002806;28;20079;-79
2023/07/03 10:35:42;;;;;;;5.90;1.60;;;17.10;99.90;;;;;;5036075;28;20124;-80
2023/07/03 10:38:43;;;;;;;4.82;1.65;;;17.40;99.90;;;;;;5021914;28;20033;-79
2023/07/03 10:41:17;;;;;;;3.55;1.60;;;17.80;99.90;;;;;;5003921;28;20436;-79
2023/07/03 10:43:51;;;;;;;4.90;1.48;;;17.90;99.90;;;;;;5049398;28;20060;-79
2023/07/03 10:46:35;;;;;;;4.85;1.35;;;18.20;99.90;;;;;;5023522;28;20033;-79
2023/07/03 10:49:06;;;;;;;3.92;1.67;;;18.60;99.90;;;;;;5048395;28;20037;-79
2023/07/03 10:51:52;;;;;;;4.20;1.63;;;18.90;99.90;;;;;;5021138;28;20496;-79
2023/07/03 10:54:44;;;;;;;2.20;1.20;;;19.50;99.90;;;;;;5021063;28;20140;-79
2023/07/03 10:57:17;;;;;;;8.70;1.80;;;20.00;99.90;;;;;;5025748;28;20038;-79
2023/07/03 10:59:48;;;;;;;5.15;1.15;;;20.20;99.90;;;;;;5023096;28;20038;-79
2023/07/03 11:02:30;;;;;;;2.30;0.90;;;20.10;99.90;;;;;;5050838;28;20423;-79
2023/07/03 11:05:16;;;;;;;2.47;1.10;;;20.00;99.90;;;;;;5014849;28;20045;-79
2023/07/03 11:07:51;;;;;;;2.55;1.10;;;20.40;99.90;;;;;;5021979;28;20128;-79
2023/07/03 11:10:33;;;;;;;4.07;1.13;;;20.50;99.90;;;;;;5025949;28;20055;-79
2023/07/03 11:12:58;;;;;;;4.07;1.05;;;20.40;99.90;;;;;;5021822;28;20473;-79
2023/07/03 11:15:50;;;;;;;6.35;1.30;;;20.50;99.90;;;;;;5020136;28;20060;-79
2023/07/03 11:18:41;;;;;;;6.07;1.33;;;20.30;88.30;;;;;;5032935;28;20294;-79
2023/07/03 11:21:12;;;;;;;2.67;0.90;;;20.40;68.40;;;;;;5017408;28;20055;-79
2023/07/03 11:24:08;;;;;;;2.97;1.50;;;20.10;77.10;;;;;;5031207;28;20437;-79
2023/07/03 11:26:40;;;;;;;5.00;1.00;;;20.00;21.10;;;;;;5048816;28;20424;-80
2023/07/03 11:29:11;;;;;;;3.03;1.13;;;19.70;99.90;;;;;;5021229;28;20087;-79
2023/07/03 11:31:40;;;;;;;2.50;1.23;;;19.40;99.90;;;;;;5004049;28;20075;-80
2023/07/03 11:34:09;;;;;;;5.45;1.25;;;19.10;99.90;;;;;;5018530;28;20705;-79
2023/07/03 11:36:47;;;;;;;5.22;1.02;;;19.10;1.00;;;;;;5003815;28;20250;-79
2023/07/03 11:39:20;;;;;;;4.43;1.00;;;19.10;99.90;;;;;;5020910;28;20033;-79
2023/07/03 11:42:09;;;;;;;4.57;0.90;;;19.30;99.90;;;;;;5018386;28;20041;-79
2023/07/03 11:44:43;;;;;;;2.72;0.98;;;19.60;99.90;;;;;;5023489;28;20558;-79
2023/07/03 11:47:33;;;;;;;3.78;1.02;;;19.80;1.00;;;;;;5022578;28;20247;-79
2023/07/03 11:50:00;;;;;;;2.17;0.70;;;20.00;99.90;;;;;;5016871;28;20148;-79
2023/07/03 11:52:31;;;;;;;4.60;1.15;;;20.30;99.90;;;;;;5050029;28;20041;-79
2023/07/03 11:55:16;;;;;;;2.38;1.15;;;21.10;99.90;;;;;;5019538;28;20089;-79
2023/07/03 11:57:44;;;;;;;5.93;1.40;;;20.70;99.90;;;;;;5005598;28;21114;-79
2023/07/03 12:00:30;;;;;;;2.60;1.08;;;19.80;99.90;;;;;;5018407;28;20630;-79
2023/07/03 12:03:04;;;;;;;5.20;1.00;;;19.20;99.90;;;;;;5001472;28;20817;-79
2023/07/03 12:05:42;;;;;;;7.43;1.20;;;18.80;99.90;;;;;;5048161;28;20048;-79
2023/07/03 12:08:17;;;;;;;3.38;1.05;;;18.50;99.90;;;;;;5021120;28;20098;-79
2023/07/03 12:10:49;;;;;;;4.40;0.82;;;18.20;99.90;;;;;;5051085;28;20099;-79
2023/07/03 12:13:37;;;;;;;4.97;1.27;;;17.90;99.90;;;;;;5021018;28;20037;-79
2023/07/03 12:16:27;;;;;;;4.40;1.27;;;17.90;1.00;;;;;;5002861;28;20045;-79
2023/07/03 12:19:01;;;;;;;5.22;1.10;;;17.90;99.90;;;;;;5031830;28;20048;-79
2023/07/03 12:21:34;;;;;;;6.80;1.58;;;17.70;99.90;;;;;;5031134;28;20484;-80
2023/07/03 12:24:00;;;;;;;7.80;1.30;;;17.60;99.90;;;;;;5030044;28;20045;-79
2023/07/03 12:26:26;;;;;;;5.22;1.20;;;17.60;1.00;;;;;;5004388;28;20500;-79
2023/07/03 12:29:03;;;;;;;3.75;1.20;;;17.40;1.00;;;;;;5021080;28;20425;-79
2023/07/03 12:31:29;;;;;;;3.67;1.40;;;17.40;1.00;;;;;;5005489;28;20122;-79
2023/07/03 12:33:57;;;;;;;5.05;1.58;;;17.40;1.00;;;;;;5018553;28;20511;-80
2023/07/03 12:36:27;;;;;;;4.78;1.13;;;17.50;1.00;;;;;;5004403;28;20484;-79
2023/07/03 12:38:54;;;;;;;5.00;1.27;;;17.50;1.00;;;;;;5020474;28;20041;-79
2023/07/03 12:41:26;;;;;;;7.47;1.38;;;17.70;99.90;;;;;;5021050;28;20055;-79
2023/07/03 12:43:52;;;;;;;4.75;1.42;;;17.80;1.00;;;;;;5029771;28;20045;-79
2023/07/03 12:46:46;;;;;;;4.40;1.27;;;18.10;89.90;;;;;;5017347;28;20536;-79
2023/07/03 12:49:14;;;;;;;4.50;1.33;;;18.00;99.90;;;;;;5032330;28;20200;-79
2023/07/03 12:51:42;;;;;;;3.08;1.17;;;17.90;99.90;;;;;;5000584;28;20138;-79
2023/07/03 12:54:10;;;;;;;4.25;1.58;;;17.80;99.90;;;;;;5020793;28;20409;-79
2023/07/03 12:56:37;;;;;;;4.47;1.38;;;17.70;1.00;;;;;;5013914;28;20064;-79
2023/07/03 12:59:03;;;;;;;2.90;1.10;;;17.60;1.00;;;;;;5016180;28;20087;-79